Terminal Aerodrome Forecast
Issued by NWS

Home | Current Version | Previous Version | Text Only | Print | Product List | Glossary On
Versions: 1 2 3 4 5 6 7 8 9 10 11 12
806
FTUS46 KEKA 111120
TAFCEC
TAF
KCEC 111120Z 1112/1212 14003KT P6SM SCT050 BKN100
      TEMPO 1112/1116 3SM -SHRA BR FEW005
     FM111800 17008KT P6SM BKN150
     FM120900 15010KT P6SM VCSH SCT025 OVC050=

USA.gov is the U.S. government's official web portal to all federal, state and local government web resources and services.